Time;durP1;ratioP1;P1;durP2;ratioP2;P2;SDS_P1;SDS_P2;PMS_P1;PMS_P2;Temp;Humidity;BMP_temperature;BMP_pressure;BME280_temperature;BME280_humidity;BME280_pressure;Samples;Min_cycle;Max_cycle;Signal;HPM_P1;HPM_P2
2023/06/03 00:01:03;;;;;;;6.57;5.45;;;19.10;99.90;;;;;;5092799;28;20304;-76
2023/06/03 00:03:32;;;;;;;6.10;5.60;;;19.00;99.90;;;;;;5092459;28;20209;-74
2023/06/03 00:05:59;;;;;;;6.05;5.53;;;18.90;99.90;;;;;;5092757;28;20631;-75
2023/06/03 00:08:26;;;;;;;6.47;5.88;;;18.90;99.90;;;;;;5092811;28;20259;-73
2023/06/03 00:10:53;;;;;;;7.75;5.50;;;19.00;99.90;;;;;;5077847;28;20245;-74
2023/06/03 00:13:20;;;;;;;7.63;6.35;;;18.90;99.90;;;;;;5092596;28;20232;-73
2023/06/03 00:15:48;;;;;;;5.85;5.25;;;18.80;99.90;;;;;;5092137;28;20210;-73
2023/06/03 00:18:16;;;;;;;6.03;5.07;;;18.90;99.90;;;;;;5092313;28;20236;-72
2023/06/03 00:20:47;;;;;;;8.63;5.90;;;18.80;99.90;;;;;;5076514;28;20245;-78
2023/06/03 00:23:14;;;;;;;5.05;4.65;;;18.70;99.90;;;;;;5079557;28;20206;-75
2023/06/03 00:25:41;;;;;;;5.75;4.82;;;18.70;99.90;;;;;;5071104;28;20689;-73
2023/06/03 00:28:08;;;;;;;5.20;4.72;;;18.70;99.90;;;;;;5072090;28;20226;-73
2023/06/03 00:30:35;;;;;;;6.57;4.93;;;18.60;99.90;;;;;;5071708;28;20747;-74
2023/06/03 00:33:02;;;;;;;5.65;5.15;;;18.60;99.90;;;;;;5071936;28;20217;-73
2023/06/03 00:35:29;;;;;;;5.47;4.93;;;18.70;99.90;;;;;;5071266;28;20237;-75
2023/06/03 00:37:58;;;;;;;5.82;5.22;;;18.70;99.90;;;;;;5071905;28;20207;-73
2023/06/03 00:40:25;;;;;;;5.53;5.00;;;18.70;99.90;;;;;;5071410;28;20283;-73
2023/06/03 00:42:51;;;;;;;5.97;5.38;;;18.70;99.90;;;;;;5071953;28;20256;-72
2023/06/03 00:45:19;;;;;;;6.13;5.53;;;18.70;99.90;;;;;;5071596;28;20253;-72
2023/06/03 00:47:46;;;;;;;5.10;4.65;;;18.60;99.90;;;;;;5071349;28;20214;-72
2023/06/03 00:50:14;;;;;;;7.03;5.53;;;18.50;99.90;;;;;;5071901;28;20233;-72
2023/06/03 00:52:42;;;;;;;5.55;5.13;;;18.50;99.90;;;;;;5071176;28;20218;-72
2023/06/03 00:55:11;;;;;;;6.60;5.28;;;18.50;99.90;;;;;;5071387;28;20256;-73
2023/06/03 00:57:38;;;;;;;6.45;5.85;;;18.40;99.90;;;;;;5071012;28;20210;-72
2023/06/03 01:00:06;;;;;;;4.63;4.22;;;18.40;99.90;;;;;;5071583;28;20242;-72
2023/06/03 01:02:36;;;;;;;6.22;5.63;;;18.40;99.90;;;;;;5070930;28;20202;-73
2023/06/03 01:05:04;;;;;;;6.75;5.55;;;18.40;99.90;;;;;;5071092;28;20212;-75
2023/06/03 01:07:42;;;;;;;5.30;4.90;;;18.40;99.90;;;;;;5070486;28;20217;-72
2023/06/03 01:10:20;;;;;;;5.35;4.85;;;18.30;99.90;;;;;;5071296;28;20224;-72
2023/06/03 01:12:57;;;;;;;5.55;5.05;;;18.30;99.90;;;;;;5070829;28;20252;-75
2023/06/03 01:15:27;;;;;;;5.60;5.10;;;18.30;99.90;;;;;;5071352;28;20234;-72
2023/06/03 01:17:58;;;;;;;5.03;4.53;;;18.30;99.90;;;;;;5070829;28;20566;-74
2023/06/03 01:20:28;;;;;;;5.20;4.70;;;18.30;99.90;;;;;;5071368;28;20272;-73
2023/06/03 01:23:03;;;;;;;4.00;3.70;;;18.30;99.90;;;;;;5070966;28;20202;-73
2023/06/03 01:25:31;;;;;;;5.43;4.75;;;18.30;99.90;;;;;;5070396;28;20726;-72
2023/06/03 01:27:58;;;;;;;4.53;4.13;;;18.20;99.90;;;;;;5070820;28;20343;-73
2023/06/03 01:30:25;;;;;;;4.18;3.88;;;18.20;99.90;;;;;;5071141;28;20241;-72
2023/06/03 01:32:53;;;;;;;4.85;4.43;;;18.20;99.90;;;;;;5070909;28;20261;-72
2023/06/03 01:35:21;;;;;;;4.20;3.70;;;18.20;99.90;;;;;;5070513;28;20237;-72
2023/06/03 01:37:48;;;;;;;5.85;3.67;;;18.30;99.90;;;;;;5070265;28;20238;-75
2023/06/03 01:40:15;;;;;;;5.57;5.07;;;18.20;99.90;;;;;;5070567;28;20261;-72
2023/06/03 01:42:44;;;;;;;4.95;4.50;;;18.20;99.90;;;;;;5070305;28;20241;-72
2023/06/03 01:45:11;;;;;;;4.40;4.00;;;18.20;99.90;;;;;;5070410;28;20253;-72
2023/06/03 01:47:38;;;;;;;5.10;4.18;;;18.20;99.90;;;;;;5070331;28;20241;-74
2023/06/03 01:50:06;;;;;;;5.10;4.60;;;18.20;99.90;;;;;;5070685;28;20241;-74
2023/06/03 01:52:33;;;;;;;4.28;3.88;;;18.10;99.90;;;;;;5070166;28;20299;-72
2023/06/03 01:55:00;;;;;;;4.32;3.97;;;18.20;99.90;;;;;;5070471;28;20248;-80
2023/06/03 01:57:27;;;;;;;6.35;4.88;;;18.20;99.90;;;;;;5070370;28;20257;-73
2023/06/03 01:59:55;;;;;;;4.65;4.25;;;18.10;99.90;;;;;;5070956;28;20237;-74
2023/06/03 02:02:22;;;;;;;5.20;4.35;;;18.10;99.90;;;;;;5070634;28;20206;-73
2023/06/03 02:04:51;;;;;;;4.88;3.88;;;18.10;99.90;;;;;;5070070;28;20241;-73
2023/06/03 02:07:18;;;;;;;4.97;4.47;;;18.10;99.90;;;;;;5070279;28;20210;-73
2023/06/03 02:09:45;;;;;;;4.53;4.13;;;18.10;99.90;;;;;;5070087;28;20233;-75
2023/06/03 02:12:12;;;;;;;5.15;4.65;;;18.10;99.90;;;;;;5070085;28;20264;-77
2023/06/03 02:14:39;;;;;;;5.65;5.15;;;18.00;99.90;;;;;;5070412;28;20307;-72
2023/06/03 02:17:08;;;;;;;5.28;4.78;;;18.00;99.90;;;;;;5074058;28;20224;-73
2023/06/03 02:19:35;;;;;;;4.97;4.47;;;18.00;99.90;;;;;;5060142;28;20206;-73
2023/06/03 02:22:02;;;;;;;6.78;4.72;;;18.00;99.90;;;;;;5074180;28;20206;-72
2023/06/03 02:24:31;;;;;;;4.63;4.22;;;18.00;99.90;;;;;;5074048;28;20241;-72
2023/06/03 02:27:01;;;;;;;5.38;4.85;;;17.90;99.90;;;;;;5074310;28;20256;-73
2023/06/03 02:29:29;;;;;;;6.32;4.80;;;18.00;99.90;;;;;;5074241;28;20746;-73
2023/06/03 02:31:57;;;;;;;5.50;5.05;;;17.90;99.90;;;;;;5074601;28;20213;-72
2023/06/03 02:34:25;;;;;;;5.40;4.65;;;17.90;99.90;;;;;;5074446;28;20249;-73
2023/06/03 02:36:52;;;;;;;7.80;5.03;;;17.90;99.90;;;;;;5074008;28;20237;-72
2023/06/03 02:39:20;;;;;;;6.97;5.40;;;17.90;99.90;;;;;;5074117;28;20241;-73
2023/06/03 02:41:48;;;;;;;6.18;5.03;;;17.90;99.90;;;;;;5073584;28;20299;-77
2023/06/03 02:44:16;;;;;;;6.07;5.45;;;17.90;99.90;;;;;;5074120;28;20293;-81
2023/06/03 02:46:43;;;;;;;6.65;6.05;;;17.80;99.90;;;;;;5073523;28;20754;-75
2023/06/03 02:49:10;;;;;;;5.65;4.72;;;17.80;99.90;;;;;;5073739;28;20639;-73
2023/06/03 02:51:39;;;;;;;5.75;4.97;;;17.80;99.90;;;;;;5073408;28;20249;-73
2023/06/03 02:54:07;;;;;;;6.25;5.65;;;17.70;99.90;;;;;;5073972;28;20685;-72
2023/06/03 02:56:34;;;;;;;5.53;5.03;;;17.70;99.90;;;;;;5073610;28;20291;-73
2023/06/03 02:59:01;;;;;;;6.72;5.93;;;17.70;99.90;;;;;;5073671;28;20202;-74
2023/06/03 03:01:29;;;;;;;5.53;5.03;;;17.60;99.90;;;;;;5073634;28;20233;-72
2023/06/03 03:03:56;;;;;;;6.00;5.38;;;17.60;99.90;;;;;;5073362;28;20229;-73
2023/06/03 03:06:24;;;;;;;7.20;5.57;;;17.60;99.90;;;;;;5073924;28;20237;-72
2023/06/03 03:08:53;;;;;;;6.60;6.00;;;17.60;99.90;;;;;;5073366;28;20206;-81
2023/06/03 03:11:20;;;;;;;7.93;5.70;;;17.50;99.90;;;;;;5073700;28;20234;-74
2023/06/03 03:13:48;;;;;;;6.78;6.18;;;17.60;99.90;;;;;;5073096;28;20221;-72
2023/06/03 03:16:17;;;;;;;7.03;5.45;;;17.50;99.90;;;;;;5073500;28;20202;-73
2023/06/03 03:18:44;;;;;;;6.07;5.47;;;17.50;99.90;;;;;;5072724;28;20202;-74
2023/06/03 03:21:11;;;;;;;5.70;5.20;;;17.60;99.90;;;;;;5073009;28;20603;-75
2023/06/03 03:23:38;;;;;;;6.43;5.82;;;17.60;99.90;;;;;;5073205;28;20230;-73
2023/06/03 03:26:09;;;;;;;7.28;5.35;;;17.50;99.90;;;;;;5073195;28;20303;-72
2023/06/03 03:28:36;;;;;;;6.50;5.90;;;17.50;99.90;;;;;;5072730;28;20206;-74
2023/06/03 03:31:04;;;;;;;5.97;5.47;;;17.50;99.90;;;;;;5073169;28;20233;-72
2023/06/03 03:33:32;;;;;;;5.90;5.22;;;17.50;99.90;;;;;;5072393;28;20218;-78
2023/06/03 03:36:08;;;;;;;9.75;6.00;;;17.40;99.90;;;;;;5073057;28;20678;-73
2023/06/03 03:38:37;;;;;;;12.65;6.55;;;17.40;99.90;;;;;;5072609;28;20213;-72
2023/06/03 03:41:06;;;;;;;5.53;5.10;;;17.40;99.90;;;;;;5072896;28;20632;-77
2023/06/03 03:43:33;;;;;;;6.30;5.70;;;17.40;99.90;;;;;;5072506;28;20202;-72
2023/06/03 03:46:00;;;;;;;6.40;4.82;;;17.30;99.90;;;;;;5072921;28;20423;-72
2023/06/03 03:48:30;;;;;;;7.60;6.38;;;17.30;99.90;;;;;;5072416;28;20237;-79
2023/06/03 03:50:57;;;;;;;6.72;5.97;;;17.30;99.90;;;;;;5072761;28;20654;-72
2023/06/03 03:53:29;;;;;;;6.43;5.82;;;17.30;99.90;;;;;;5073127;28;20233;-73
2023/06/03 03:55:57;;;;;;;6.20;5.60;;;17.30;99.90;;;;;;5073025;28;20206;-73
2023/06/03 03:58:27;;;;;;;7.20;5.45;;;17.30;99.90;;;;;;5072861;28;20217;-73
2023/06/03 04:00:57;;;;;;;7.85;6.65;;;17.20;99.90;;;;;;5059299;28;20225;-73
2023/06/03 04:03:25;;;;;;;8.13;5.45;;;17.20;99.90;;;;;;5072899;28;20210;-73
2023/06/03 04:05:53;;;;;;;6.50;5.90;;;17.20;99.90;;;;;;5072311;28;20225;-73
2023/06/03 04:08:39;;;;;;;6.22;5.65;;;17.00;99.90;;;;;;5072630;28;20228;-81
2023/06/03 04:11:07;;;;;;;7.18;6.47;;;17.00;99.90;;;;;;5058795;28;20210;-74
2023/06/03 04:13:38;;;;;;;6.40;5.18;;;17.10;99.90;;;;;;5072275;28;20229;-74
2023/06/03 04:16:10;;;;;;;7.72;6.85;;;17.10;99.90;;;;;;5071953;28;20674;-75
2023/06/03 04:18:40;;;;;;;6.28;5.50;;;17.00;99.90;;;;;;5071785;28;20674;-73
2023/06/03 04:21:13;;;;;;;7.53;6.72;;;17.00;99.90;;;;;;5072043;28;20249;-73
2023/06/03 04:23:39;;;;;;;7.82;7.03;;;17.20;99.90;;;;;;5071945;28;20210;-74
2023/06/03 04:26:07;;;;;;;10.73;7.03;;;17.20;99.90;;;;;;5072176;28;20226;-76
2023/06/03 04:28:35;;;;;;;7.38;6.70;;;17.20;99.90;;;;;;5071865;28;20240;-80
2023/06/03 04:31:02;;;;;;;8.32;7.35;;;17.30;99.90;;;;;;5071931;28;20293;-73
2023/06/03 04:33:29;;;;;;;8.45;7.53;;;17.30;99.90;;;;;;5071358;28;20245;-74
2023/06/03 04:35:56;;;;;;;9.63;8.02;;;17.30;99.90;;;;;;5072323;28;20309;-73
2023/06/03 04:38:23;;;;;;;8.07;7.28;;;17.30;99.90;;;;;;5071434;28;20214;-76
2023/06/03 04:40:50;;;;;;;8.90;7.95;;;17.20;99.90;;;;;;5071854;28;20315;-73
2023/06/03 04:43:18;;;;;;;7.03;6.32;;;17.20;99.90;;;;;;5071860;28;20292;-78
2023/06/03 04:45:49;;;;;;;7.60;6.82;;;17.20;99.90;;;;;;5071179;28;20213;-73
2023/06/03 04:48:16;;;;;;;8.63;6.72;;;17.20;99.90;;;;;;5071469;28;20210;-74
2023/06/03 04:50:44;;;;;;;6.93;6.25;;;17.20;99.90;;;;;;5071347;28;20577;-74
2023/06/03 04:53:11;;;;;;;7.85;7.05;;;17.20;99.90;;;;;;5071844;28;20218;-73
2023/06/03 04:55:42;;;;;;;9.15;7.60;;;17.20;99.90;;;;;;5071392;28;20230;-72
2023/06/03 04:58:09;;;;;;;8.27;7.25;;;17.20;99.90;;;;;;5070279;28;20205;-73
2023/06/03 05:00:36;;;;;;;8.32;7.38;;;17.10;99.90;;;;;;5070700;28;20253;-77
2023/06/03 05:03:08;;;;;;;7.65;6.95;;;17.10;99.90;;;;;;5071043;28;20263;-73
2023/06/03 05:05:35;;;;;;;7.75;6.43;;;17.00;99.90;;;;;;5070597;28;20206;-79
2023/06/03 05:08:03;;;;;;;9.60;6.82;;;17.10;99.90;;;;;;5071375;28;20205;-73
2023/06/03 05:10:30;;;;;;;10.68;7.43;;;17.20;99.90;;;;;;5071074;28;20298;-75
2023/06/03 05:12:57;;;;;;;8.45;7.57;;;17.20;99.90;;;;;;5071277;28;20214;-73
2023/06/03 05:15:25;;;;;;;8.18;7.38;;;17.10;99.90;;;;;;5071129;28;20202;-73
2023/06/03 05:17:53;;;;;;;8.10;7.30;;;17.30;99.90;;;;;;5071406;28;20202;-75
2023/06/03 05:20:21;;;;;;;11.38;9.20;;;17.50;99.90;;;;;;5070780;28;20229;-75
2023/06/03 05:22:48;;;;;;;8.25;7.30;;;17.60;99.90;;;;;;5070972;28;20279;-74
2023/06/03 05:25:15;;;;;;;9.32;7.20;;;17.80;99.90;;;;;;5070510;28;20202;-73
2023/06/03 05:27:42;;;;;;;9.38;7.93;;;17.80;99.90;;;;;;5070869;28;20236;-74
2023/06/03 05:30:10;;;;;;;8.77;7.80;;;17.90;99.90;;;;;;5070590;28;20311;-74
2023/06/03 05:32:36;;;;;;;8.60;7.80;;;18.00;99.90;;;;;;5070658;28;20657;-73
2023/06/03 05:35:04;;;;;;;15.75;7.93;;;18.10;99.90;;;;;;5070738;28;20229;-74
2023/06/03 05:37:32;;;;;;;8.57;7.78;;;18.10;99.90;;;;;;5070494;28;20206;-75
2023/06/03 05:39:59;;;;;;;10.25;8.63;;;18.30;99.90;;;;;;5070291;28;20657;-78
2023/06/03 05:42:26;;;;;;;9.55;8.63;;;18.30;99.90;;;;;;5070539;28;20266;-75
2023/06/03 05:44:52;;;;;;;10.80;7.95;;;18.30;99.90;;;;;;5070476;28;20210;-75
2023/06/03 05:47:19;;;;;;;12.68;9.93;;;18.40;99.90;;;;;;5070399;28;20238;-82
2023/06/03 05:49:46;;;;;;;11.43;7.90;;;18.20;99.90;;;;;;5070500;28;20230;-76
2023/06/03 05:52:13;;;;;;;8.23;7.05;;;18.20;99.90;;;;;;5070180;28;20237;-73
2023/06/03 05:54:41;;;;;;;8.95;7.80;;;18.30;99.90;;;;;;5070233;28;20211;-74
2023/06/03 05:57:08;;;;;;;8.55;7.50;;;18.40;99.90;;;;;;5070293;28;20256;-74
2023/06/03 05:59:35;;;;;;;10.02;8.75;;;18.50;99.90;;;;;;5070397;28;20264;-73
2023/06/03 06:02:02;;;;;;;9.25;6.90;;;18.50;99.90;;;;;;5070436;28;20318;-74
2023/06/03 06:04:29;;;;;;;9.25;8.40;;;18.50;99.90;;;;;;5070130;28;20202;-73
2023/06/03 06:06:56;;;;;;;7.60;6.93;;;18.70;99.90;;;;;;5070741;28;20682;-75
2023/06/03 06:09:23;;;;;;;8.70;7.78;;;18.80;99.90;;;;;;5055795;28;20234;-74
2023/06/03 06:11:51;;;;;;;8.73;7.55;;;18.90;99.90;;;;;;5070392;28;20256;-73
2023/06/03 06:14:18;;;;;;;8.35;7.38;;;18.80;99.90;;;;;;5070060;28;20244;-76
2023/06/03 06:16:45;;;;;;;8.98;6.45;;;18.80;99.90;;;;;;5070641;28;20206;-73
2023/06/03 06:19:12;;;;;;;8.02;7.05;;;19.00;99.90;;;;;;5070427;28;20209;-74
2023/06/03 06:21:39;;;;;;;8.43;7.63;;;19.00;99.90;;;;;;5069914;28;20257;-73
2023/06/03 06:24:07;;;;;;;7.60;6.82;;;19.10;99.90;;;;;;5069814;28;20233;-79
2023/06/03 06:26:33;;;;;;;7.57;6.75;;;19.10;99.90;;;;;;5070167;28;20238;-73
2023/06/03 06:29:03;;;;;;;7.25;6.65;;;19.30;99.90;;;;;;5070181;28;20579;-78
2023/06/03 06:31:30;;;;;;;7.53;6.13;;;19.30;99.90;;;;;;5069847;28;20242;-73
2023/06/03 06:33:59;;;;;;;6.70;6.10;;;19.40;99.90;;;;;;5070341;28;20690;-74
2023/06/03 06:36:47;;;;;;;7.70;6.90;;;19.40;99.90;;;;;;5069814;28;20237;-73
2023/06/03 06:39:47;;;;;;;10.57;7.82;;;19.30;99.90;;;;;;5070173;28;20212;-77
2023/06/03 06:42:18;;;;;;;10.32;7.32;;;19.60;99.90;;;;;;5056761;28;20233;-76
2023/06/03 06:44:48;;;;;;;8.70;7.75;;;19.50;99.90;;;;;;5070157;28;20248;-74
2023/06/03 06:47:21;;;;;;;8.65;7.78;;;19.30;99.90;;;;;;5069987;28;20230;-73
2023/06/03 06:49:48;;;;;;;8.30;7.03;;;19.20;99.90;;;;;;5070284;28;20621;-74
2023/06/03 06:52:15;;;;;;;8.35;7.60;;;19.40;99.90;;;;;;5069274;28;20688;-73
2023/06/03 06:54:42;;;;;;;7.95;7.25;;;19.80;99.90;;;;;;5070063;28;20234;-77
2023/06/03 06:57:09;;;;;;;8.60;6.85;;;20.00;99.90;;;;;;5070319;28;20238;-76
2023/06/03 06:59:36;;;;;;;8.20;7.40;;;20.30;99.90;;;;;;5069494;28;20238;-73
2023/06/03 07:02:05;;;;;;;6.88;6.18;;;20.20;99.90;;;;;;5071370;28;20277;-72
2023/06/03 07:04:32;;;;;;;7.97;7.10;;;20.20;99.90;;;;;;5073632;28;20290;-73
2023/06/03 07:06:59;;;;;;;7.15;6.47;;;20.40;99.90;;;;;;5073872;28;20206;-73
2023/06/03 07:09:25;;;;;;;8.68;6.55;;;20.30;99.90;;;;;;5073163;28;20234;-78
2023/06/03 07:11:52;;;;;;;7.43;6.72;;;20.70;99.90;;;;;;5073347;28;20326;-80
2023/06/03 07:14:19;;;;;;;7.50;6.65;;;20.50;99.90;;;;;;5073143;28;20230;-74
2023/06/03 07:16:48;;;;;;;7.18;6.50;;;20.80;99.90;;;;;;5073430;28;20237;-74
2023/06/03 07:19:16;;;;;;;7.80;6.05;;;21.00;99.90;;;;;;5073048;28;20209;-74
2023/06/03 07:21:43;;;;;;;15.10;7.07;;;21.30;99.90;;;;;;5073038;28;20265;-81
2023/06/03 07:24:11;;;;;;;7.57;6.93;;;21.40;99.90;;;;;;5073875;28;20237;-78
2023/06/03 07:26:40;;;;;;;7.40;6.70;;;21.50;99.90;;;;;;5072803;28;20210;-73
2023/06/03 07:29:07;;;;;;;6.45;5.93;;;21.40;99.90;;;;;;5073206;28;20631;-76
2023/06/03 07:31:36;;;;;;;6.38;5.78;;;22.10;99.90;;;;;;5072772;28;20260;-73
2023/06/03 07:34:04;;;;;;;6.63;5.93;;;22.00;99.90;;;;;;5073238;28;20229;-73
2023/06/03 07:36:34;;;;;;;6.13;5.53;;;22.00;99.90;;;;;;5072904;28;20213;-75
2023/06/03 07:39:04;;;;;;;10.90;8.60;;;21.60;99.90;;;;;;5065699;28;20797;-79
2023/06/03 07:41:41;;;;;;;6.65;5.78;;;21.50;99.90;;;;;;5067647;28;20245;-74
2023/06/03 07:44:10;;;;;;;8.48;6.20;;;21.90;99.90;;;;;;5073160;28;20213;-73
2023/06/03 07:46:40;;;;;;;7.18;6.50;;;21.90;99.90;;;;;;5072559;28;20748;-76
2023/06/03 07:49:12;;;;;;;6.80;5.70;;;21.70;99.90;;;;;;5072968;28;20256;-73
2023/06/03 07:51:46;;;;;;;7.20;6.50;;;21.70;99.90;;;;;;5071982;28;20246;-75
2023/06/03 07:54:13;;;;;;;7.90;6.57;;;22.00;99.90;;;;;;5059901;28;20238;-75
2023/06/03 07:56:41;;;;;;;7.20;6.45;;;22.00;99.90;;;;;;5072820;28;20245;-74
2023/06/03 07:59:10;;;;;;;6.78;6.18;;;22.20;99.90;;;;;;5072859;28;20238;-73
2023/06/03 08:01:37;;;;;;;7.05;6.35;;;22.10;99.90;;;;;;5072164;28;20271;-73
2023/06/03 08:04:06;;;;;;;5.90;5.40;;;22.10;99.90;;;;;;5072355;28;20242;-72
2023/06/03 08:06:36;;;;;;;7.50;6.45;;;22.20;99.90;;;;;;5072524;28;20202;-73
2023/06/03 08:09:05;;;;;;;6.70;5.80;;;22.50;99.90;;;;;;5072728;28;20236;-77
2023/06/03 08:11:36;;;;;;;7.05;6.35;;;22.10;99.90;;;;;;5072484;28;20210;-75
2023/06/03 08:14:03;;;;;;;6.28;5.65;;;22.30;99.90;;;;;;5071739;28;20206;-75
2023/06/03 08:16:36;;;;;;;6.18;5.57;;;22.20;99.90;;;;;;5072223;28;20208;-74
2023/06/03 08:19:06;;;;;;;7.45;6.00;;;22.40;99.90;;;;;;5072444;28;20237;-75
2023/06/03 08:21:36;;;;;;;7.13;6.50;;;22.70;99.90;;;;;;5072297;28;20246;-71
2023/06/03 08:24:05;;;;;;;8.50;6.63;;;22.50;99.90;;;;;;5072623;28;20209;-79
2023/06/03 08:26:32;;;;;;;6.88;6.28;;;22.90;99.90;;;;;;5072490;28;20210;-74
2023/06/03 08:28:59;;;;;;;9.90;9.02;;;23.10;99.90;;;;;;5071904;28;20238;-70
2023/06/03 08:31:26;;;;;;;6.70;6.10;;;23.30;99.90;;;;;;5071603;28;20294;-70
2023/06/03 08:33:53;;;;;;;6.40;5.35;;;23.10;99.90;;;;;;5072284;28;20342;-73
2023/06/03 08:36:20;;;;;;;6.95;6.25;;;23.00;99.90;;;;;;5072009;28;20580;-84
2023/06/03 08:38:47;;;;;;;9.90;7.50;;;23.30;99.90;;;;;;5072120;28;20206;-72
2023/06/03 08:41:15;;;;;;;5.85;5.32;;;23.40;99.90;;;;;;5071627;28;20241;-69
2023/06/03 08:43:49;;;;;;;6.05;5.55;;;23.50;99.90;;;;;;5071592;28;20313;-71
2023/06/03 08:46:23;;;;;;;5.82;4.85;;;23.90;99.90;;;;;;5059868;28;20345;-69
2023/06/03 08:48:57;;;;;;;6.60;5.22;;;24.00;99.90;;;;;;5070100;28;20198;-68
2023/06/03 08:51:24;;;;;;;5.88;5.38;;;24.10;99.90;;;;;;5071086;28;20674;-72
2023/06/03 08:53:52;;;;;;;5.20;4.55;;;24.00;99.90;;;;;;5071514;28;20233;-70
2023/06/03 08:56:22;;;;;;;5.63;4.82;;;24.10;99.90;;;;;;5071080;28;20594;-74
2023/06/03 08:58:52;;;;;;;4.38;4.03;;;24.30;99.90;;;;;;5071250;28;20247;-81
2023/06/03 09:01:22;;;;;;;5.57;5.07;;;24.30;99.90;;;;;;5071488;28;20233;-73
2023/06/03 09:03:53;;;;;;;5.40;4.15;;;24.90;99.90;;;;;;5071248;28;20284;-73
2023/06/03 09:06:20;;;;;;;8.80;4.80;;;25.70;99.90;;;;;;5070896;28;20225;-73
2023/06/03 09:08:50;;;;;;;5.35;4.85;;;25.40;99.90;;;;;;5070993;28;20240;-73
2023/06/03 09:11:18;;;;;;;5.15;4.65;;;25.60;99.90;;;;;;5071087;28;20241;-73
2023/06/03 09:13:47;;;;;;;4.85;4.35;;;25.60;99.90;;;;;;5071517;28;20249;-74
2023/06/03 09:16:14;;;;;;;5.18;4.60;;;25.30;99.90;;;;;;5071074;28;20662;-74
2023/06/03 09:18:42;;;;;;;5.22;4.72;;;24.80;99.90;;;;;;5070727;28;20686;-73
2023/06/03 09:21:11;;;;;;;4.60;4.20;;;24.70;99.90;;;;;;5070807;28;20244;-73
2023/06/03 09:23:39;;;;;;;5.97;4.57;;;24.50;99.90;;;;;;5070696;28;20245;-70
2023/06/03 09:26:06;;;;;;;6.93;4.15;;;25.00;99.90;;;;;;5071037;28;20209;-71
2023/06/03 09:28:35;;;;;;;4.97;3.45;;;25.20;99.90;;;;;;5070781;28;20229;-74
2023/06/03 09:31:05;;;;;;;4.95;4.55;;;25.20;99.90;;;;;;5070906;28;20213;-74
2023/06/03 09:33:31;;;;;;;4.25;3.80;;;25.70;99.90;;;;;;5070252;28;20252;-74
2023/06/03 09:36:12;;;;;;;4.88;4.30;;;26.00;99.90;;;;;;5070838;28;20242;-73
2023/06/03 09:38:50;;;;;;;5.20;4.78;;;25.60;99.90;;;;;;5070311;28;20267;-73
2023/06/03 09:41:18;;;;;;;4.65;4.25;;;25.30;99.90;;;;;;5070518;28;20241;-73
2023/06/03 09:43:56;;;;;;;4.90;4.40;;;26.40;99.90;;;;;;5070504;28;20316;-74
2023/06/03 09:46:25;;;;;;;5.90;4.47;;;27.50;99.90;;;;;;5069918;28;20248;-76
2023/06/03 09:48:53;;;;;;;5.00;3.90;;;26.30;99.90;;;;;;5070387;28;20712;-73
2023/06/03 09:51:19;;;;;;;3.88;3.58;;;25.70;99.90;;;;;;5070353;28;20249;-83
2023/06/03 09:53:46;;;;;;;3.50;3.20;;;26.30;99.90;;;;;;5070409;28;20288;-74
2023/06/03 09:56:24;;;;;;;6.65;5.88;;;29.30;99.90;;;;;;5070672;28;20283;-72
2023/06/03 09:58:54;;;;;;;7.20;6.50;;;27.80;99.90;;;;;;5070403;28;20205;-73
2023/06/03 10:01:32;;;;;;;8.73;6.63;;;26.60;99.90;;;;;;5070414;28;20247;-72
2023/06/03 10:04:00;;;;;;;4.35;3.95;;;32.00;99.90;;;;;;5070218;28;20291;-71
2023/06/03 10:06:27;;;;;;;3.60;3.30;;;34.40;99.90;;;;;;5070145;28;20214;-72
2023/06/03 10:08:54;;;;;;;5.78;5.00;;;36.20;99.90;;;;;;5070241;28;20202;-74
2023/06/03 10:11:23;;;;;;;10.63;9.15;;;35.50;99.90;;;;;;5070003;28;20252;-74
2023/06/03 10:14:04;;;;;;;10.48;8.48;;;36.60;99.90;;;;;;5070445;28;20315;-73
2023/06/03 10:16:32;;;;;;;16.58;12.98;;;38.90;99.90;;;;;;5069750;28;20211;-74
2023/06/03 10:18:59;;;;;;;4.55;4.03;;;37.10;99.90;;;;;;5070417;28;20232;-73
2023/06/03 10:21:28;;;;;;;4.75;4.35;;;37.10;99.90;;;;;;5069766;28;20241;-73
2023/06/03 10:24:00;;;;;;;3.50;3.20;;;37.20;99.90;;;;;;5070197;28;20269;-73
2023/06/03 10:26:29;;;;;;;7.38;6.68;;;37.70;99.90;;;;;;5069985;28;20206;-76
2023/06/03 10:28:59;;;;;;;5.22;4.45;;;38.00;99.90;;;;;;5070227;28;20274;-73
2023/06/03 10:31:28;;;;;;;5.28;4.88;;;36.50;99.90;;;;;;5069602;28;20258;-75
2023/06/03 10:33:57;;;;;;;3.15;2.92;;;31.90;99.90;;;;;;5070062;28;20228;-73
2023/06/03 10:36:26;;;;;;;7.43;4.25;;;29.50;99.90;;;;;;5069985;28;20233;-73
2023/06/03 10:38:53;;;;;;;4.15;3.75;;;28.10;99.90;;;;;;5074456;28;20209;-72
2023/06/03 10:41:21;;;;;;;3.88;3.47;;;28.20;99.90;;;;;;5073907;28;20237;-75
2023/06/03 10:43:48;;;;;;;3.92;3.63;;;27.90;99.90;;;;;;5073765;28;20261;-78
2023/06/03 10:46:16;;;;;;;4.28;3.67;;;27.50;99.90;;;;;;5073258;28;20245;-72
2023/06/03 10:48:46;;;;;;;4.20;3.80;;;27.40;99.90;;;;;;5073528;28;20238;-73
2023/06/03 10:51:33;;;;;;;4.25;3.83;;;27.30;99.90;;;;;;5074230;28;20213;-71
2023/06/03 10:54:19;;;;;;;4.47;4.07;;;27.30;99.90;;;;;;5073845;28;20263;-73
2023/06/03 10:56:51;;;;;;;6.07;5.57;;;27.40;99.90;;;;;;5073699;28;20217;-72
2023/06/03 10:59:20;;;;;;;7.07;5.63;;;27.30;99.90;;;;;;5073231;28;20226;-75
2023/06/03 11:01:58;;;;;;;7.68;4.35;;;27.50;99.90;;;;;;5073977;28;20213;-75
2023/06/03 11:04:26;;;;;;;4.90;4.38;;;27.50;99.90;;;;;;5060337;28;20233;-73
2023/06/03 11:06:55;;;;;;;5.80;3.60;;;27.50;99.90;;;;;;5073558;28;20202;-73
2023/06/03 11:09:35;;;;;;;5.25;4.45;;;27.20;99.90;;;;;;5073034;28;20252;-73
2023/06/03 11:12:09;;;;;;;4.60;3.63;;;27.40;99.90;;;;;;5073753;28;20239;-73
2023/06/03 11:14:57;;;;;;;4.07;3.67;;;27.50;99.90;;;;;;5059593;28;20211;-74
2023/06/03 11:17:27;;;;;;;5.25;3.92;;;27.60;99.90;;;;;;5072983;28;20644;-73
2023/06/03 11:19:58;;;;;;;3.65;3.35;;;27.70;99.90;;;;;;5073407;28;20203;-73
2023/06/03 11:22:50;;;;;;;4.18;3.78;;;27.70;99.90;;;;;;5072866;28;20264;-74
2023/06/03 11:25:33;;;;;;;3.90;3.60;;;27.60;99.90;;;;;;5062810;28;20701;-73
2023/06/03 11:28:36;;;;;;;4.85;3.88;;;28.00;99.90;;;;;;5072825;28;20279;-74
2023/06/03 11:31:07;;;;;;;4.18;3.78;;;27.80;99.90;;;;;;5073352;28;20267;-73
2023/06/03 11:33:34;;;;;;;5.00;3.75;;;28.20;99.90;;;;;;5072577;28;20295;-74
2023/06/03 11:36:34;;;;;;;4.47;4.03;;;27.70;99.90;;;;;;5086647;28;20245;-73
2023/06/03 11:39:03;;;;;;;3.70;3.40;;;27.90;99.90;;;;;;5080180;28;20208;-74
2023/06/03 11:42:08;;;;;;;4.38;3.97;;;27.70;99.90;;;;;;5092408;28;20628;-73
2023/06/03 11:44:36;;;;;;;6.32;4.10;;;27.70;99.90;;;;;;5092458;28;20241;-74
2023/06/03 11:47:03;;;;;;;3.92;3.63;;;27.90;99.90;;;;;;5093095;28;20240;-75
2023/06/03 11:49:34;;;;;;;4.30;3.90;;;28.20;99.90;;;;;;5091117;28;20680;-72
2023/06/03 11:52:02;;;;;;;3.42;3.13;;;27.80;99.90;;;;;;5093212;28;20216;-72
2023/06/03 11:54:30;;;;;;;4.68;4.28;;;27.50;99.90;;;;;;5092589;28;20237;-72
2023/06/03 11:56:58;;;;;;;5.68;4.07;;;27.20;99.90;;;;;;5092907;28;20666;-72
2023/06/03 11:59:32;;;;;;;3.90;3.45;;;27.60;99.90;;;;;;5092364;28;20212;-72
2023/06/03 12:02:01;;;;;;;3.97;3.67;;;27.30;99.90;;;;;;5093022;28;20202;-72
2023/06/03 12:04:28;;;;;;;3.80;3.10;;;27.20;99.90;;;;;;5092453;28;20318;-73
2023/06/03 12:06:55;;;;;;;4.18;3.78;;;27.00;99.90;;;;;;5092807;28;20255;-74
2023/06/03 12:09:24;;;;;;;6.47;3.35;;;27.30;99.90;;;;;;5092291;28;20746;-72
2023/06/03 12:11:52;;;;;;;3.85;3.55;;;27.30;99.90;;;;;;5092396;28;20233;-75
2023/06/03 12:14:27;;;;;;;4.22;3.90;;;27.50;99.90;;;;;;5092233;28;20245;-73
2023/06/03 12:16:55;;;;;;;3.95;3.25;;;27.80;99.90;;;;;;5092172;28;20653;-68
2023/06/03 12:19:22;;;;;;;3.58;3.28;;;27.90;99.90;;;;;;5092368;28;20243;-74
2023/06/03 12:21:57;;;;;;;4.10;3.58;;;28.20;99.90;;;;;;5092370;28;20693;-71
2023/06/03 12:24:29;;;;;;;4.05;3.65;;;28.10;99.90;;;;;;5091920;28;20221;-70
2023/06/03 12:27:10;;;;;;;3.88;3.58;;;27.50;99.90;;;;;;5092119;28;20210;-75
2023/06/03 12:29:41;;;;;;;4.38;3.83;;;27.50;99.90;;;;;;5077353;28;20673;-73
2023/06/03 12:32:08;;;;;;;3.13;2.85;;;27.80;99.90;;;;;;5072345;28;20206;-76
2023/06/03 12:34:36;;;;;;;5.45;4.13;;;28.00;99.90;;;;;;5071540;28;20245;-73
2023/06/03 12:37:04;;;;;;;3.55;3.30;;;28.20;99.90;;;;;;5071952;28;20674;-73
2023/06/03 12:39:46;;;;;;;3.53;3.20;;;28.30;99.90;;;;;;5071746;28;20202;-73
2023/06/03 12:42:15;;;;;;;4.32;3.05;;;28.30;99.90;;;;;;5057866;28;20204;-72
2023/06/03 12:44:50;;;;;;;4.45;4.07;;;28.40;99.90;;;;;;5071790;28;20265;-73
2023/06/03 12:47:18;;;;;;;4.25;3.00;;;28.70;99.90;;;;;;5057373;28;20213;-73
2023/06/03 12:49:46;;;;;;;3.92;3.63;;;28.90;99.90;;;;;;5071804;28;20202;-75
2023/06/03 12:52:18;;;;;;;3.58;3.28;;;28.70;99.90;;;;;;5071572;28;20650;-72
2023/06/03 12:54:50;;;;;;;4.45;3.03;;;28.70;99.90;;;;;;5071616;28;20674;-73
2023/06/03 12:57:18;;;;;;;4.00;3.58;;;28.70;99.90;;;;;;5071296;28;20301;-72